sensor_id;sensor_type;location;lat;lon;timestamp;pressure;altitude;pressure_sealevel;temperature;humidity
59987;BME280;46181;51.498;5.392;2023-04-21T00:03:21;101412.4;;;11.85;57.3252
59987;BME280;46181;51.498;5.392;2023-04-21T00:07:51;101402.9;;;11.84;57.1543
59987;BME280;46181;51.498;5.392;2023-04-21T00:12:21;101405;;;11.87;57.25977
59987;BME280;46181;51.498;5.392;2023-04-21T00:16:51;101397.3;;;11.87;57.14746
59987;BME280;46181;51.498;5.392;2023-04-21T00:21:21;101386.6;;;11.8;57.47754
59987;BME280;46181;51.498;5.392;2023-04-21T00:25:51;101379.7;;;11.8;57.35254
59987;BME280;46181;51.498;5.392;2023-04-21T00:30:21;101374;;;11.77;57.75488
59987;BME280;46181;51.498;5.392;2023-04-21T00:34:51;101368.8;;;11.72;58.3125
59987;BME280;46181;51.498;5.392;2023-04-21T00:39:21;101376.8;;;11.72;58.30273
59987;BME280;46181;51.498;5.392;2023-04-21T00:44:06;101362.3;;;11.67;58.33887
59987;BME280;46181;51.498;5.392;2023-04-21T00:48:21;101362.6;;;11.71;58.19824
59987;BME280;46181;51.498;5.392;2023-04-21T00:52:52;101376;;;11.77;58.18457
59987;BME280;46181;51.498;5.392;2023-04-21T00:57:21;101367;;;11.78;58.08398
59987;BME280;46181;51.498;5.392;2023-04-21T01:01:51;101365.6;;;11.74;58.19043
59987;BME280;46181;51.498;5.392;2023-04-21T01:06:21;101366.3;;;11.75;58.31738
59987;BME280;46181;51.498;5.392;2023-04-21T01:10:51;101357.9;;;11.76;58.92773
59987;BME280;46181;51.498;5.392;2023-04-21T01:15:23;101348.9;;;11.73;58.85645
59987;BME280;46181;51.498;5.392;2023-04-21T01:19:52;101351.1;;;11.73;59.19531
59987;BME280;46181;51.498;5.392;2023-04-21T01:24:21;101334.2;;;11.75;59.31055
59987;BME280;46181;51.498;5.392;2023-04-21T01:28:51;101333;;;11.78;59.11133
59987;BME280;46181;51.498;5.392;2023-04-21T01:33:21;101325.1;;;11.75;59.05078
59987;BME280;46181;51.498;5.392;2023-04-21T01:37:51;101328.3;;;11.71;59.22559
59987;BME280;46181;51.498;5.392;2023-04-21T01:42:23;101320.4;;;11.71;59.33789
59987;BME280;46181;51.498;5.392;2023-04-21T01:46:51;101321.9;;;11.71;59.48438
59987;BME280;46181;51.498;5.392;2023-04-21T01:51:21;101309;;;11.67;59.7041
59987;BME280;46181;51.498;5.392;2023-04-21T01:55:51;101297.7;;;11.64;59.52051
59987;BME280;46181;51.498;5.392;2023-04-21T02:00:22;101292;;;11.57;59.61426
59987;BME280;46181;51.498;5.392;2023-04-21T02:04:51;101281.3;;;11.58;59.85156
59987;BME280;46181;51.498;5.392;2023-04-21T02:09:21;101269.8;;;11.57;60.10938
59987;BME280;46181;51.498;5.392;2023-04-21T02:13:51;101282;;;11.61;60.0918
59987;BME280;46181;51.498;5.392;2023-04-21T02:18:21;101287;;;11.67;60.07617
59987;BME280;46181;51.498;5.392;2023-04-21T02:22:51;101277.7;;;11.71;59.95898
59987;BME280;46181;51.498;5.392;2023-04-21T02:27:21;101272.7;;;11.7;59.90137
59987;BME280;46181;51.498;5.392;2023-04-21T02:31:51;101270.6;;;11.72;59.83594
59987;BME280;46181;51.498;5.392;2023-04-21T02:36:21;101268.7;;;11.75;60.02148
59987;BME280;46181;51.498;5.392;2023-04-21T02:40:51;101263.6;;;11.74;59.88379
59987;BME280;46181;51.498;5.392;2023-04-21T02:45:22;101269;;;11.79;59.8457
59987;BME280;46181;51.498;5.392;2023-04-21T02:49:54;101273.6;;;11.81;59.63379
59987;BME280;46181;51.498;5.392;2023-04-21T02:54:21;101269.4;;;11.81;59.53223
59987;BME280;46181;51.498;5.392;2023-04-21T02:58:51;101269.1;;;11.76;59.65039
59987;BME280;46181;51.498;5.392;2023-04-21T03:03:23;101262.5;;;11.75;59.8291
59987;BME280;46181;51.498;5.392;2023-04-21T03:07:52;101258;;;11.7;59.67578
59987;BME280;46181;51.498;5.392;2023-04-21T03:12:21;101251.5;;;11.57;59.69336
59987;BME280;46181;51.498;5.392;2023-04-21T03:16:51;101256.7;;;11.45;59.83301
59987;BME280;46181;51.498;5.392;2023-04-21T03:21:21;101258.9;;;11.38;60.26367
59987;BME280;46181;51.498;5.392;2023-04-21T03:25:51;101253.9;;;11.29;60.3418
59987;BME280;46181;51.498;5.392;2023-04-21T03:30:22;101259.8;;;11.23;60.38867
59987;BME280;46181;51.498;5.392;2023-04-21T03:34:51;101251;;;11.2;60.38477
59987;BME280;46181;51.498;5.392;2023-04-21T03:39:21;101255.4;;;11.21;60.60059
59987;BME280;46181;51.498;5.392;2023-04-21T03:43:53;101251.4;;;11.23;60.53516
59987;BME280;46181;51.498;5.392;2023-04-21T03:48:21;101252.5;;;11.24;60.59375
59987;BME280;46181;51.498;5.392;2023-04-21T03:52:51;101252;;;11.37;60.62207
59987;BME280;46181;51.498;5.392;2023-04-21T03:57:21;101257.4;;;11.51;60.4834
59987;BME280;46181;51.498;5.392;2023-04-21T04:01:51;101255.4;;;11.62;60.34082
59987;BME280;46181;51.498;5.392;2023-04-21T04:06:21;101254.6;;;11.69;60.32813
59987;BME280;46181;51.498;5.392;2023-04-21T04:10:51;101255.5;;;11.77;60.23828
59987;BME280;46181;51.498;5.392;2023-04-21T04:15:21;101247.8;;;11.83;60.07715
59987;BME280;46181;51.498;5.392;2023-04-21T04:19:51;101247.5;;;11.91;59.97559
59987;BME280;46181;51.498;5.392;2023-04-21T04:24:21;101243.6;;;11.96;59.85742
59987;BME280;46181;51.498;5.392;2023-04-21T04:28:51;101242.4;;;11.98;59.82617
59987;BME280;46181;51.498;5.392;2023-04-21T04:33:21;101238.7;;;12.01;59.74121
59987;BME280;46181;51.498;5.392;2023-04-21T04:37:51;101237;;;12.01;59.67285
59987;BME280;46181;51.498;5.392;2023-04-21T04:42:21;101246.3;;;12;59.72852
59987;BME280;46181;51.498;5.392;2023-04-21T04:46:51;101247.5;;;12.04;59.69922
59987;BME280;46181;51.498;5.392;2023-04-21T04:51:21;101257.4;;;12.1;59.63867
59987;BME280;46181;51.498;5.392;2023-04-21T04:55:51;101255.8;;;12.14;59.59961
59987;BME280;46181;51.498;5.392;2023-04-21T05:00:22;101248.6;;;12.16;59.48926
59987;BME280;46181;51.498;5.392;2023-04-21T05:04:51;101251.5;;;12.2;59.5957
59987;BME280;46181;51.498;5.392;2023-04-21T05:09:21;101247.9;;;12.24;59.56934
59987;BME280;46181;51.498;5.392;2023-04-21T05:13:51;101254.9;;;12.33;59.51367
59987;BME280;46181;51.498;5.392;2023-04-21T05:18:21;101258.6;;;12.35;59.61816
59987;BME280;46181;51.498;5.392;2023-04-21T05:22:51;101261.4;;;12.38;59.65527
59987;BME280;46181;51.498;5.392;2023-04-21T05:27:21;101267.3;;;12.46;59.68945
59987;BME280;46181;51.498;5.392;2023-04-21T05:31:51;101271.6;;;12.55;59.69043
59987;BME280;46181;51.498;5.392;2023-04-21T05:36:21;101277.8;;;12.62;59.63184
59987;BME280;46181;51.498;5.392;2023-04-21T05:40:55;101280.8;;;12.68;59.44727
59987;BME280;46181;51.498;5.392;2023-04-21T05:45:21;101279.5;;;12.69;59.49414
59987;BME280;46181;51.498;5.392;2023-04-21T05:49:53;101284.7;;;12.68;59.46973
59987;BME280;46181;51.498;5.392;2023-04-21T05:54:21;101284.1;;;12.7;59.53027
59987;BME280;46181;51.498;5.392;2023-04-21T05:58:51;101288.6;;;12.74;59.5791
59987;BME280;46181;51.498;5.392;2023-04-21T06:03:21;101281.8;;;12.73;59.83789
59987;BME280;46181;51.498;5.392;2023-04-21T06:07:51;101276.2;;;12.78;60.10547
59987;BME280;46181;51.498;5.392;2023-04-21T06:12:21;101271.1;;;12.88;60.04102
59987;BME280;46181;51.498;5.392;2023-04-21T06:16:51;101266;;;12.92;60.02246
59987;BME280;46181;51.498;5.392;2023-04-21T06:21:21;101272.5;;;12.98;60.14551
59987;BME280;46181;51.498;5.392;2023-04-21T06:26:01;101270.2;;;13.12;60.14063
59987;BME280;46181;51.498;5.392;2023-04-21T06:30:22;101270;;;13.24;59.9209
59987;BME280;46181;51.498;5.392;2023-04-21T06:34:51;101279.9;;;13.32;59.9082
59987;BME280;46181;51.498;5.392;2023-04-21T06:39:21;101285.3;;;13.47;59.74707
59987;BME280;46181;51.498;5.392;2023-04-21T06:43:51;101280.9;;;13.51;59.68359
59987;BME280;46181;51.498;5.392;2023-04-21T06:48:21;101278.4;;;13.62;59.7334
59987;BME280;46181;51.498;5.392;2023-04-21T06:52:51;101277.4;;;13.61;59.69824
59987;BME280;46181;51.498;5.392;2023-04-21T06:57:21;101277.2;;;13.59;59.67285
59987;BME280;46181;51.498;5.392;2023-04-21T07:01:51;101278.3;;;13.55;59.74609
59987;BME280;46181;51.498;5.392;2023-04-21T07:06:21;101273.8;;;13.68;59.88867
59987;BME280;46181;51.498;5.392;2023-04-21T07:10:51;101272.1;;;13.91;59.87598
59987;BME280;46181;51.498;5.392;2023-04-21T07:15:21;101276.4;;;13.97;59.57715
59987;BME280;46181;51.498;5.392;2023-04-21T07:19:51;101275.8;;;13.97;59.56543
59987;BME280;46181;51.498;5.392;2023-04-21T07:24:21;101279.6;;;14.09;59.67188
59987;BME280;46181;51.498;5.392;2023-04-21T07:28:51;101283.8;;;14.18;59.27734
59987;BME280;46181;51.498;5.392;2023-04-21T07:33:21;101277.9;;;14.09;58.90039
59987;BME280;46181;51.498;5.392;2023-04-21T07:37:51;101268.7;;;14.16;59.47754
59987;BME280;46181;51.498;5.392;2023-04-21T07:42:21;101274.8;;;14.39;59.27051
59987;BME280;46181;51.498;5.392;2023-04-21T07:46:51;101264.7;;;14.43;58.75391
59987;BME280;46181;51.498;5.392;2023-04-21T07:51:21;101263.9;;;14.49;58.39941
59987;BME280;46181;51.498;5.392;2023-04-21T07:55:51;101267.9;;;14.53;58.17676
59987;BME280;46181;51.498;5.392;2023-04-21T08:00:22;101269.4;;;14.77;58.23047
59987;BME280;46181;51.498;5.392;2023-04-21T08:04:51;101264;;;14.99;57.3623
59987;BME280;46181;51.498;5.392;2023-04-21T08:09:21;101263.1;;;15.2;56.83105
59987;BME280;46181;51.498;5.392;2023-04-21T08:13:52;101259.3;;;15.41;56.37891
59987;BME280;46181;51.498;5.392;2023-04-21T08:18:21;101258.6;;;15.54;55.87305
59987;BME280;46181;51.498;5.392;2023-04-21T08:22:51;101261.4;;;15.7;55.42676
59987;BME280;46181;51.498;5.392;2023-04-21T08:27:21;101255.4;;;15.79;55.08301
59987;BME280;46181;51.498;5.392;2023-04-21T08:31:51;101265.7;;;16.03;54.52051
59987;BME280;46181;51.498;5.392;2023-04-21T08:36:21;101247.5;;;16.11;53.74316
59987;BME280;46181;51.498;5.392;2023-04-21T08:40:52;101254.7;;;16.36;53.56738
59987;BME280;46181;51.498;5.392;2023-04-21T08:45:22;101250;;;16.47;52.70117
59987;BME280;46181;51.498;5.392;2023-04-21T08:49:51;101249.8;;;16.6;52.43066
59987;BME280;46181;51.498;5.392;2023-04-21T08:54:21;101248.4;;;16.67;52.20996
59987;BME280;46181;51.498;5.392;2023-04-21T08:58:51;101245;;;16.85;51.60156
59987;BME280;46181;51.498;5.392;2023-04-21T09:03:27;101247.3;;;17.01;51.13965
59987;BME280;46181;51.498;5.392;2023-04-21T09:07:52;101238.9;;;17.2;50.33691
59987;BME280;46181;51.498;5.392;2023-04-21T09:12:23;101226.7;;;17.46;51.5127
59987;BME280;46181;51.498;5.392;2023-04-21T09:16:51;101226;;;17.7;51.01367
59987;BME280;46181;51.498;5.392;2023-04-21T09:21:26;101225;;;17.96;50.96289
59987;BME280;46181;51.498;5.392;2023-04-21T09:25:52;101221;;;17.88;50.47168
59987;BME280;46181;51.498;5.392;2023-04-21T09:30:26;101227.4;;;17.89;49.98047
59987;BME280;46181;51.498;5.392;2023-04-21T09:34:53;101222.6;;;17.9;50.68066
59987;BME280;46181;51.498;5.392;2023-04-21T09:39:22;101227.9;;;18;51.89746
59987;BME280;46181;51.498;5.392;2023-04-21T09:43:51;101229.2;;;18.22;51.33691
59987;BME280;46181;51.498;5.392;2023-04-21T09:48:24;101220.6;;;18.3;51.05957
59987;BME280;46181;51.498;5.392;2023-04-21T09:52:53;101224.9;;;18.56;48.07813
59987;BME280;46181;51.498;5.392;2023-04-21T09:57:26;101213.4;;;18.54;47.28223
59987;BME280;46181;51.498;5.392;2023-04-21T10:01:52;101208.8;;;18.56;46.07617
59987;BME280;46181;51.498;5.392;2023-04-21T10:06:21;101211.2;;;18.57;45.24902
59987;BME280;46181;51.498;5.392;2023-04-21T10:10:53;101215.5;;;18.67;45.33984
59987;BME280;46181;51.498;5.392;2023-04-21T10:15:37;101196.8;;;18.63;44.89746
59987;BME280;46181;51.498;5.392;2023-04-21T10:20:00;101193.8;;;18.72;44.61914
59987;BME280;46181;51.498;5.392;2023-04-21T10:24:22;101184.9;;;18.81;44.84766
59987;BME280;46181;51.498;5.392;2023-04-21T10:28:56;101188.7;;;19.04;44.58203
59987;BME280;46181;51.498;5.392;2023-04-21T10:33:25;101180;;;19.19;43.79004
59987;BME280;46181;51.498;5.392;2023-04-21T10:37:55;101165.9;;;19.22;43.45996
59987;BME280;46181;51.498;5.392;2023-04-21T10:42:40;101167.9;;;19.07;43.00684
59987;BME280;46181;51.498;5.392;2023-04-21T10:46:53;101152;;;19.04;43.93848
59987;BME280;46181;51.498;5.392;2023-04-21T10:51:24;101149.2;;;19.27;43.78711
59987;BME280;46181;51.498;5.392;2023-04-21T10:55:56;101160.4;;;19.42;43.27148
59987;BME280;46181;51.498;5.392;2023-04-21T11:00:23;101150.2;;;19.95;42.80273
59987;BME280;46181;51.498;5.392;2023-04-21T11:04:53;101152.7;;;20.04;42.02539
59987;BME280;46181;51.498;5.392;2023-04-21T11:09:23;101150.6;;;19.92;42.1875
59987;BME280;46181;51.498;5.392;2023-04-21T11:13:51;101147.4;;;19.78;41.98926
59987;BME280;46181;51.498;5.392;2023-04-21T11:18:22;101124.6;;;19.56;42.24609
59987;BME280;46181;51.498;5.392;2023-04-21T11:22:51;101122;;;19.87;41.70996
59987;BME280;46181;51.498;5.392;2023-04-21T11:27:22;101109.1;;;20.04;41.25195
59987;BME280;46181;51.498;5.392;2023-04-21T11:31:52;101092.1;;;20.54;41.45898
59987;BME280;46181;51.498;5.392;2023-04-21T11:36:21;101090.6;;;20.83;39.63379
59987;BME280;46181;51.498;5.392;2023-04-21T11:41:00;101086;;;20.66;38.8418
59987;BME280;46181;51.498;5.392;2023-04-21T11:45:24;101086.5;;;20.77;38.97852
59987;BME280;46181;51.498;5.392;2023-04-21T11:49:56;101066.8;;;20.75;39.31348
59987;BME280;46181;51.498;5.392;2023-04-21T11:54:22;101065.8;;;20.68;39.01855
59987;BME280;46181;51.498;5.392;2023-04-21T11:58:52;101065.9;;;20.6;39.79883
59987;BME280;46181;51.498;5.392;2023-04-21T12:03:22;101059.8;;;20.55;39.00586
59987;BME280;46181;51.498;5.392;2023-04-21T12:07:54;101058.4;;;20.57;38.18555
59987;BME280;46181;51.498;5.392;2023-04-21T12:12:24;101057.5;;;20.75;37.85254
59987;BME280;46181;51.498;5.392;2023-04-21T12:16:53;101061.4;;;21.19;36.96289
59987;BME280;46181;51.498;5.392;2023-04-21T12:21:25;101044.4;;;21.56;36.93555
59987;BME280;46181;51.498;5.392;2023-04-21T12:25:51;101039.1;;;21.92;36.3252
59987;BME280;46181;51.498;5.392;2023-04-21T12:30:22;101030.5;;;22.08;36.25684
59987;BME280;46181;51.498;5.392;2023-04-21T12:34:51;101036.7;;;22.23;35.28027
59987;BME280;46181;51.498;5.392;2023-04-21T12:39:21;101026.9;;;22.28;34.50391
59987;BME280;46181;51.498;5.392;2023-04-21T12:43:51;101025.1;;;22.33;34.21777
59987;BME280;46181;51.498;5.392;2023-04-21T12:48:21;101015.6;;;22.71;34.15332
59987;BME280;46181;51.498;5.392;2023-04-21T12:52:51;101014.4;;;23.13;33.4502
59987;BME280;46181;51.498;5.392;2023-04-21T12:57:22;101023.5;;;23.39;32.9209
59987;BME280;46181;51.498;5.392;2023-04-21T13:01:51;101008.4;;;23.36;32.69629
59987;BME280;46181;51.498;5.392;2023-04-21T13:06:21;101009.6;;;23.63;32.28418
59987;BME280;46181;51.498;5.392;2023-04-21T13:10:51;101004.6;;;23.75;31.84863
59987;BME280;46181;51.498;5.392;2023-04-21T13:15:22;101002.1;;;23.98;31.90039
59987;BME280;46181;51.498;5.392;2023-04-21T13:19:51;100996.5;;;24.01;31.58594
59987;BME280;46181;51.498;5.392;2023-04-21T13:24:21;100999.8;;;23.47;31.91016
59987;BME280;46181;51.498;5.392;2023-04-21T13:28:51;100988.5;;;22.99;32.34277
59987;BME280;46181;51.498;5.392;2023-04-21T13:33:22;100987.6;;;22.53;32.99707
59987;BME280;46181;51.498;5.392;2023-04-21T13:37:52;100977.7;;;22.23;33.37109
59987;BME280;46181;51.498;5.392;2023-04-21T13:42:21;100974.3;;;22.15;33.44727
59987;BME280;46181;51.498;5.392;2023-04-21T13:46:51;100956.5;;;22.08;33.66211
59987;BME280;46181;51.498;5.392;2023-04-21T13:51:21;100955;;;22.21;33.98633
59987;BME280;46181;51.498;5.392;2023-04-21T13:55:51;100952.1;;;22.61;34.09863
59987;BME280;46181;51.498;5.392;2023-04-21T14:00:23;100938;;;22.95;33.90234
59987;BME280;46181;51.498;5.392;2023-04-21T14:04:51;100931.1;;;22.99;33.62598
59987;BME280;46181;51.498;5.392;2023-04-21T14:09:21;100940.5;;;23.04;33.4668
59987;BME280;46181;51.498;5.392;2023-04-21T14:13:51;100920.8;;;22.99;33.4043
59987;BME280;46181;51.498;5.392;2023-04-21T14:18:21;100911.3;;;23.32;33.68555
59987;BME280;46181;51.498;5.392;2023-04-21T14:22:51;100904.3;;;23.76;32.9834
59987;BME280;46181;51.498;5.392;2023-04-21T14:27:21;100903.3;;;24.01;32.75586
59987;BME280;46181;51.498;5.392;2023-04-21T14:31:51;100888.7;;;24.15;32.79004
59987;BME280;46181;51.498;5.392;2023-04-21T14:36:21;100877.4;;;23.8;33.36035
59987;BME280;46181;51.498;5.392;2023-04-21T14:40:52;100877;;;23.26;34.50977
59987;BME280;46181;51.498;5.392;2023-04-21T14:45:22;100874.3;;;23.18;34.90039
59987;BME280;46181;51.498;5.392;2023-04-21T14:49:51;100870.8;;;22.93;34.97363
59987;BME280;46181;51.498;5.392;2023-04-21T14:54:21;100869.4;;;22.87;35.5752
59987;BME280;46181;51.498;5.392;2023-04-21T14:58:52;100864.3;;;23.12;35.52637
59987;BME280;46181;51.498;5.392;2023-04-21T15:03:21;100858.4;;;23.59;34.88574
59987;BME280;46181;51.498;5.392;2023-04-21T15:07:51;100855.6;;;23.42;34.61621
59987;BME280;46181;51.498;5.392;2023-04-21T15:12:22;100844.3;;;23.11;35.12793
59987;BME280;46181;51.498;5.392;2023-04-21T15:16:51;100832.7;;;22.87;35.66797
59987;BME280;46181;51.498;5.392;2023-04-21T15:21:21;100826.1;;;22.73;36.03027
59987;BME280;46181;51.498;5.392;2023-04-21T15:25:52;100829.6;;;22.5;37.0127
59987;BME280;46181;51.498;5.392;2023-04-21T15:30:23;100821.7;;;22.58;37.20605
59987;BME280;46181;51.498;5.392;2023-04-21T15:34:51;100811.8;;;22.72;37.07715
59987;BME280;46181;51.498;5.392;2023-04-21T15:39:22;100803.2;;;22.84;36.65625
59987;BME280;46181;51.498;5.392;2023-04-21T15:43:52;100794.8;;;22.69;36.74902
59987;BME280;46181;51.498;5.392;2023-04-21T15:48:21;100795.9;;;22.63;37.10449
59987;BME280;46181;51.498;5.392;2023-04-21T15:52:52;100777.8;;;22.66;36.99219
59987;BME280;46181;51.498;5.392;2023-04-21T15:57:22;100766.2;;;22.52;37.08398
59987;BME280;46181;51.498;5.392;2023-04-21T16:01:52;100756.2;;;22.37;37.28125
59987;BME280;46181;51.498;5.392;2023-04-21T16:06:21;100752.7;;;22.21;37.65137
59987;BME280;46181;51.498;5.392;2023-04-21T16:10:52;100748.5;;;22.2;37.84863
59987;BME280;46181;51.498;5.392;2023-04-21T16:15:22;100738.3;;;22.28;37.82031
59987;BME280;46181;51.498;5.392;2023-04-21T16:19:52;100719.9;;;22.46;37.70801
59987;BME280;46181;51.498;5.392;2023-04-21T16:24:21;100711.6;;;22.5;37.80371
59987;BME280;46181;51.498;5.392;2023-04-21T16:28:52;100716.6;;;22.65;37.79297
59987;BME280;46181;51.498;5.392;2023-04-21T16:33:22;100718.1;;;22.81;37.62109
59987;BME280;46181;51.498;5.392;2023-04-21T16:37:52;100720.1;;;22.82;36.50391
59987;BME280;46181;51.498;5.392;2023-04-21T16:42:22;100718.9;;;22.74;34.9707
59987;BME280;46181;51.498;5.392;2023-04-21T16:46:52;100712.9;;;22.64;34.59082
59987;BME280;46181;51.498;5.392;2023-04-21T16:51:22;100701.8;;;22.54;34.39551
59987;BME280;46181;51.498;5.392;2023-04-21T16:55:52;100693.2;;;22.47;34.90332
59987;BME280;46181;51.498;5.392;2023-04-21T17:00:22;100687.1;;;22.38;34.36035
59987;BME280;46181;51.498;5.392;2023-04-21T17:04:51;100685.2;;;22.23;34.70996
59987;BME280;46181;51.498;5.392;2023-04-21T17:09:22;100676.1;;;22.11;35.47949
59987;BME280;46181;51.498;5.392;2023-04-21T17:13:52;100674.1;;;21.94;35.9668
59987;BME280;46181;51.498;5.392;2023-04-21T17:18:22;100659.1;;;21.78;37.61621
59987;BME280;46181;51.498;5.392;2023-04-21T17:22:52;100694.6;;;21.28;40.74023
59987;BME280;46181;51.498;5.392;2023-04-21T17:27:22;100729.5;;;20.5;44.11621
59987;BME280;46181;51.498;5.392;2023-04-21T17:31:52;100736.1;;;19.62;45.63379
59987;BME280;46181;51.498;5.392;2023-04-21T17:36:22;100729.5;;;19.19;47.07422
59987;BME280;46181;51.498;5.392;2023-04-21T17:40:52;100695;;;19.01;47.57422
59987;BME280;46181;51.498;5.392;2023-04-21T17:45:22;100703.3;;;18.86;48.01953
59987;BME280;46181;51.498;5.392;2023-04-21T17:49:52;100702.7;;;18.54;47.70703
59987;BME280;46181;51.498;5.392;2023-04-21T17:54:22;100681.4;;;18.25;47.71191
59987;BME280;46181;51.498;5.392;2023-04-21T17:58:52;100673.4;;;18.02;47.99609
59987;BME280;46181;51.498;5.392;2023-04-21T18:03:22;100680.7;;;17.8;48.52344
59987;BME280;46181;51.498;5.392;2023-04-21T18:07:52;100668.5;;;17.61;49.17871
59987;BME280;46181;51.498;5.392;2023-04-21T18:12:22;100663.8;;;17.42;49.57129
59987;BME280;46181;51.498;5.392;2023-04-21T18:16:52;100666.7;;;17.26;49.80566
59987;BME280;46181;51.498;5.392;2023-04-21T18:21:22;100676.4;;;17.11;50.09766
59987;BME280;46181;51.498;5.392;2023-04-21T18:25:52;100692.4;;;17;50.08496
59987;BME280;46181;51.498;5.392;2023-04-21T18:30:22;100714.8;;;16.89;49.98145
59987;BME280;46181;51.498;5.392;2023-04-21T18:34:52;100720.5;;;16.77;49.97852
59987;BME280;46181;51.498;5.392;2023-04-21T18:39:22;100730.2;;;16.65;49.8291
59987;BME280;46181;51.498;5.392;2023-04-21T18:43:52;100731.9;;;16.55;50.03418
59987;BME280;46181;51.498;5.392;2023-04-21T18:48:22;100732.5;;;16.45;50.27344
59987;BME280;46181;51.498;5.392;2023-04-21T18:52:52;100718.9;;;16.36;50.48047
59987;BME280;46181;51.498;5.392;2023-04-21T18:57:22;100720.3;;;16.29;50.66797
59987;BME280;46181;51.498;5.392;2023-04-21T19:01:52;100720.7;;;16.21;51.0127
59987;BME280;46181;51.498;5.392;2023-04-21T19:06:22;100718.3;;;16.2;51.16016
59987;BME280;46181;51.498;5.392;2023-04-21T19:10:52;100710.7;;;16.23;51.51758
59987;BME280;46181;51.498;5.392;2023-04-21T19:15:22;100691.6;;;16.27;51.64844
59987;BME280;46181;51.498;5.392;2023-04-21T19:19:52;100690.1;;;16.33;51.73535
59987;BME280;46181;51.498;5.392;2023-04-21T19:24:22;100699.5;;;16.39;51.76563
59987;BME280;46181;51.498;5.392;2023-04-21T19:28:52;100697.3;;;16.41;51.41406
59987;BME280;46181;51.498;5.392;2023-04-21T19:33:22;100697.5;;;16.45;51.58984
59987;BME280;46181;51.498;5.392;2023-04-21T19:37:52;100705.7;;;16.51;51.72168
59987;BME280;46181;51.498;5.392;2023-04-21T19:42:22;100708.9;;;16.58;51.79883
59987;BME280;46181;51.498;5.392;2023-04-21T19:46:52;100709;;;16.63;51.9541
59987;BME280;46181;51.498;5.392;2023-04-21T19:51:22;100714.9;;;16.68;52.08496
59987;BME280;46181;51.498;5.392;2023-04-21T19:55:52;100792.7;;;16.69;52.01855
59987;BME280;46181;51.498;5.392;2023-04-21T20:00:23;100821.1;;;16.63;51.73633
59987;BME280;46181;51.498;5.392;2023-04-21T20:04:52;100845.3;;;16.52;51.49414
59987;BME280;46181;51.498;5.392;2023-04-21T20:09:22;100862.9;;;16.23;52.30566
59987;BME280;46181;51.498;5.392;2023-04-21T20:13:52;100875.3;;;15.92;54.00391
59987;BME280;46181;51.498;5.392;2023-04-21T20:18:22;100875.6;;;15.79;55.01465
59987;BME280;46181;51.498;5.392;2023-04-21T20:22:52;100882.5;;;15.58;55.87793
59987;BME280;46181;51.498;5.392;2023-04-21T20:27:22;100891.6;;;15.46;56.64844
59987;BME280;46181;51.498;5.392;2023-04-21T20:31:52;100892.4;;;15.38;57.17383
59987;BME280;46181;51.498;5.392;2023-04-21T20:36:22;100892.9;;;15.34;57.79395
59987;BME280;46181;51.498;5.392;2023-04-21T20:40:52;100897.7;;;15.28;57.70703
59987;BME280;46181;51.498;5.392;2023-04-21T20:45:22;100876.8;;;15.14;57.91699
59987;BME280;46181;51.498;5.392;2023-04-21T20:49:52;100822;;;15.01;57.94434
59987;BME280;46181;51.498;5.392;2023-04-21T20:54:22;100813.6;;;14.93;57.72949
59987;BME280;46181;51.498;5.392;2023-04-21T20:58:52;100759.6;;;14.84;57.52441
59987;BME280;46181;51.498;5.392;2023-04-21T21:03:22;100786;;;14.78;57.45996
59987;BME280;46181;51.498;5.392;2023-04-21T21:07:52;100771.4;;;14.73;57.38477
59987;BME280;46181;51.498;5.392;2023-04-21T21:12:22;100765.6;;;14.7;57.30078
59987;BME280;46181;51.498;5.392;2023-04-21T21:16:52;100766.7;;;14.73;57.3623
59987;BME280;46181;51.498;5.392;2023-04-21T21:21:22;100773.3;;;14.8;57.23535
59987;BME280;46181;51.498;5.392;2023-04-21T21:25:52;100766.5;;;14.81;57.07715
59987;BME280;46181;51.498;5.392;2023-04-21T21:30:22;100760.5;;;14.72;56.96289
59987;BME280;46181;51.498;5.392;2023-04-21T21:34:52;100750.8;;;14.62;56.97168
59987;BME280;46181;51.498;5.392;2023-04-21T21:39:22;100741.7;;;14.51;56.94824
59987;BME280;46181;51.498;5.392;2023-04-21T21:43:52;100741.1;;;14.49;57.02539
59987;BME280;46181;51.498;5.392;2023-04-21T21:48:22;100735.5;;;14.46;56.87109
59987;BME280;46181;51.498;5.392;2023-04-21T21:52:52;100733.1;;;14.34;56.81055
59987;BME280;46181;51.498;5.392;2023-04-21T21:57:22;100731.5;;;14.24;56.90137
59987;BME280;46181;51.498;5.392;2023-04-21T22:01:53;100736.3;;;14.15;56.92285
59987;BME280;46181;51.498;5.392;2023-04-21T22:06:22;100733.2;;;14.07;56.96875
59987;BME280;46181;51.498;5.392;2023-04-21T22:10:52;100732.8;;;13.99;57.01563
59987;BME280;46181;51.498;5.392;2023-04-21T22:15:22;100735;;;13.94;56.99805
59987;BME280;46181;51.498;5.392;2023-04-21T22:19:52;100737;;;13.84;56.98535
59987;BME280;46181;51.498;5.392;2023-04-21T22:24:22;100735.7;;;13.75;57.03027
59987;BME280;46181;51.498;5.392;2023-04-21T22:28:52;100735.9;;;13.67;57.08887
59987;BME280;46181;51.498;5.392;2023-04-21T22:33:22;100748.1;;;13.61;57.16992
59987;BME280;46181;51.498;5.392;2023-04-21T22:37:52;100747.8;;;13.55;57.21973
59987;BME280;46181;51.498;5.392;2023-04-21T22:42:22;100744.4;;;13.46;57.20703
59987;BME280;46181;51.498;5.392;2023-04-21T22:46:52;100740.3;;;13.35;57.18164
59987;BME280;46181;51.498;5.392;2023-04-21T22:51:22;100727.3;;;13.28;57.24023
59987;BME280;46181;51.498;5.392;2023-04-21T22:55:52;100726.8;;;13.22;57.30078
59987;BME280;46181;51.498;5.392;2023-04-21T23:00:22;100721.9;;;13.16;57.33789
59987;BME280;46181;51.498;5.392;2023-04-21T23:04:52;100716.6;;;13.11;57.35449